createdAt,value
2023-05-31T00:01:26.251Z,15.43
2023-05-31T00:03:53.485Z,15.90
2023-05-31T00:06:20.765Z,12.65
2023-05-31T00:08:47.992Z,13.50
2023-05-31T00:11:15.321Z,12.48
2023-05-31T00:13:42.608Z,16.88
2023-05-31T00:16:25.220Z,12.10
2023-05-31T00:18:59.226Z,13.70
2023-05-31T00:21:26.805Z,14.60
2023-05-31T00:23:54.186Z,14.57
2023-05-31T00:26:22.299Z,18.20
2023-05-31T00:28:50.493Z,15.40
2023-05-31T00:31:17.768Z,16.17
2023-05-31T00:33:45.582Z,17.38
2023-05-31T00:36:13.078Z,15.98
2023-05-31T00:38:40.346Z,21.27
2023-05-31T00:41:11.387Z,17.02
2023-05-31T00:43:38.583Z,19.00
2023-05-31T00:46:07.219Z,14.82
2023-05-31T00:48:34.606Z,12.30
2023-05-31T00:51:02.641Z,14.52
2023-05-31T00:53:30.040Z,16.80
2023-05-31T00:55:59.226Z,17.45
2023-05-31T00:58:28.773Z,15.52
2023-05-31T01:00:56.530Z,12.50
2023-05-31T01:03:24.349Z,16.05
2023-05-31T01:05:51.942Z,14.98
2023-05-31T01:08:20.793Z,16.52
2023-05-31T01:10:48.492Z,16.50
2023-05-31T01:13:38.239Z,13.85
2023-05-31T01:16:31.014Z,16.27
2023-05-31T01:19:04.155Z,16.23
2023-05-31T01:21:58.807Z,19.60
2023-05-31T01:25:36.605Z,16.83
2023-05-31T01:28:11.621Z,15.02
2023-05-31T01:30:39.480Z,15.10
2023-05-31T01:33:12.639Z,20.08
2023-05-31T01:35:39.901Z,17.10
2023-05-31T01:38:07.111Z,16.85
2023-05-31T01:40:36.677Z,17.02
2023-05-31T01:43:06.953Z,18.20
2023-05-31T01:45:36.229Z,20.52
2023-05-31T01:48:07.054Z,14.98
2023-05-31T01:50:36.743Z,18.13
2023-05-31T01:53:05.642Z,25.15
2023-05-31T01:55:33.547Z,14.00
2023-05-31T01:58:02.646Z,16.05
2023-05-31T02:00:31.803Z,14.52
2023-05-31T02:02:59.507Z,16.95
2023-05-31T02:05:26.750Z,15.75
2023-05-31T02:07:55.270Z,19.20
2023-05-31T02:10:22.843Z,20.30
2023-05-31T02:12:55.722Z,15.80
2023-05-31T02:17:52.508Z,16.17
2023-05-31T02:20:20.151Z,18.58
2023-05-31T02:22:48.683Z,16.77
2023-05-31T02:25:16.687Z,16.27
2023-05-31T02:27:44.287Z,18.75
2023-05-31T02:30:12.134Z,20.65
2023-05-31T02:32:39.582Z,18.48
2023-05-31T02:35:09.942Z,17.00
2023-05-31T02:37:39.359Z,18.13
2023-05-31T02:40:09.538Z,13.95
2023-05-31T02:42:40.138Z,20.23
2023-05-31T02:45:11.541Z,21.50
2023-05-31T02:47:40.384Z,17.77
2023-05-31T02:50:10.416Z,13.77
2023-05-31T02:52:38.763Z,17.20
2023-05-31T02:55:07.134Z,17.73
2023-05-31T02:57:34.385Z,17.58
2023-05-31T03:00:16.662Z,16.27
2023-05-31T03:02:44.086Z,15.10
2023-05-31T03:05:11.550Z,15.75
2023-05-31T03:07:38.910Z,23.08
2023-05-31T03:10:07.976Z,14.05
2023-05-31T03:12:35.415Z,14.55
2023-05-31T03:15:03.452Z,20.27
2023-05-31T03:17:31.089Z,19.38
2023-05-31T03:19:59.168Z,16.92
2023-05-31T03:22:26.925Z,18.02
2023-05-31T03:24:54.248Z,16.30
2023-05-31T03:27:21.447Z,17.35
2023-05-31T03:29:48.729Z,18.35
2023-05-31T03:32:16.149Z,20.58
2023-05-31T03:34:43.388Z,20.85
2023-05-31T03:37:10.705Z,16.83
2023-05-31T03:39:37.953Z,18.25
2023-05-31T03:42:07.283Z,17.80
2023-05-31T03:44:34.557Z,17.13
2023-05-31T03:47:01.776Z,21.67
2023-05-31T03:49:28.988Z,22.77
2023-05-31T03:51:56.195Z,22.88
2023-05-31T03:54:23.383Z,23.60
2023-05-31T03:56:50.663Z,21.13
2023-05-31T03:59:17.965Z,18.65
2023-05-31T04:01:45.296Z,18.55
2023-05-31T04:04:12.662Z,20.45
2023-05-31T04:06:40.049Z,16.73
2023-05-31T04:09:07.429Z,16.15
2023-05-31T04:11:34.777Z,13.45
2023-05-31T04:14:02.126Z,18.80
2023-05-31T04:16:29.512Z,15.30
2023-05-31T04:18:56.829Z,16.95
2023-05-31T04:21:24.076Z,17.05
2023-05-31T04:23:52.829Z,22.70
2023-05-31T04:26:22.035Z,19.65
2023-05-31T04:28:53.028Z,21.02
2023-05-31T04:31:21.541Z,18.60
2023-05-31T04:33:48.753Z,17.10
2023-05-31T04:36:15.989Z,18.10
2023-05-31T04:38:43.213Z,16.50
2023-05-31T04:41:11.147Z,20.55
2023-05-31T04:43:40.753Z,20.38
2023-05-31T04:46:10.450Z,13.43
2023-05-31T04:48:38.016Z,13.88
2023-05-31T04:51:05.440Z,18.35
2023-05-31T04:53:33.706Z,17.70
2023-05-31T04:56:05.428Z,19.75
2023-05-31T04:58:32.761Z,15.88
2023-05-31T05:01:01.580Z,16.83
2023-05-31T05:03:29.490Z,13.90
2023-05-31T05:05:58.169Z,16.80
2023-05-31T05:08:25.873Z,16.17
2023-05-31T05:10:53.122Z,10.93
2023-05-31T05:13:20.899Z,15.52
2023-05-31T05:15:48.157Z,14.05
2023-05-31T05:18:15.832Z,14.48
2023-05-31T05:20:43.205Z,17.48
2023-05-31T05:23:10.803Z,14.80
2023-05-31T05:25:38.147Z,15.77
2023-05-31T05:28:05.371Z,16.13
2023-05-31T05:30:33.432Z,16.60
2023-05-31T05:33:00.809Z,14.05
2023-05-31T05:35:28.075Z,14.38
2023-05-31T05:37:56.357Z,13.15
2023-05-31T05:40:23.550Z,15.90
2023-05-31T05:42:51.065Z,14.13
2023-05-31T05:45:18.325Z,12.43
2023-05-31T05:47:46.376Z,15.88
2023-05-31T05:50:13.844Z,13.30
2023-05-31T05:52:41.286Z,14.55
2023-05-31T05:55:09.300Z,14.82
2023-05-31T05:57:36.895Z,13.52
2023-05-31T06:00:15.114Z,11.77
2023-05-31T06:02:42.565Z,13.23
2023-05-31T06:05:10.144Z,14.70
2023-05-31T06:07:37.391Z,10.98
2023-05-31T06:10:05.310Z,11.00
2023-05-31T06:12:32.592Z,15.13
2023-05-31T06:14:59.798Z,12.98
2023-05-31T06:17:27.182Z,11.02
2023-05-31T06:19:54.763Z,15.38
2023-05-31T06:22:21.977Z,14.00
2023-05-31T06:24:49.218Z,14.30
2023-05-31T06:27:16.699Z,12.82
2023-05-31T06:29:43.929Z,10.55
2023-05-31T06:32:11.233Z,11.45
2023-05-31T06:34:38.465Z,13.88
2023-05-31T06:37:05.904Z,12.25
2023-05-31T06:39:33.219Z,10.27
2023-05-31T06:42:01.022Z,11.63
2023-05-31T06:44:28.799Z,10.05
2023-05-31T06:46:56.959Z,12.05
2023-05-31T06:49:24.379Z,9.55
2023-05-31T06:51:51.639Z,15.68
2023-05-31T06:54:18.858Z,7.45
2023-05-31T06:56:46.122Z,11.50
2023-05-31T06:59:13.763Z,12.35
2023-05-31T07:01:41.144Z,8.70
2023-05-31T07:04:08.467Z,9.52
2023-05-31T07:06:37.150Z,11.07
2023-05-31T07:09:05.894Z,11.15
2023-05-31T07:11:33.187Z,5.53
2023-05-31T07:14:02.517Z,9.52
2023-05-31T07:16:30.171Z,15.57
2023-05-31T07:18:57.683Z,13.95
2023-05-31T07:21:25.389Z,8.63
2023-05-31T07:23:52.923Z,10.27
2023-05-31T07:26:20.100Z,8.77
2023-05-31T07:28:47.538Z,13.40
2023-05-31T07:31:17.298Z,8.65
2023-05-31T07:33:45.244Z,7.30
2023-05-31T07:36:12.683Z,8.93
2023-05-31T07:38:39.898Z,8.88
2023-05-31T07:41:07.081Z,7.35
2023-05-31T07:43:35.569Z,8.57
2023-05-31T07:46:02.771Z,10.95
2023-05-31T07:48:30.087Z,10.00
2023-05-31T07:50:57.336Z,11.38
2023-05-31T07:53:24.544Z,7.50
2023-05-31T07:55:51.722Z,9.45
2023-05-31T07:58:19.040Z,7.70
2023-05-31T08:00:46.393Z,8.30
2023-05-31T08:03:15.020Z,7.70
2023-05-31T08:05:42.269Z,6.95
2023-05-31T08:08:09.526Z,5.50
2023-05-31T08:10:36.925Z,5.68
2023-05-31T08:13:04.125Z,7.30
2023-05-31T08:15:31.357Z,6.40
2023-05-31T08:18:00.092Z,6.40
2023-05-31T08:20:27.710Z,9.48
2023-05-31T08:22:55.883Z,4.35
2023-05-31T08:25:23.541Z,5.07
2023-05-31T08:27:51.438Z,3.92
2023-05-31T08:30:18.675Z,5.40
2023-05-31T08:32:46.230Z,4.20
2023-05-31T08:35:13.483Z,5.97
2023-05-31T08:37:41.245Z,6.85
2023-05-31T08:40:09.486Z,6.55
2023-05-31T08:42:56.345Z,5.63
2023-05-31T08:45:29.431Z,6.55
2023-05-31T08:48:21.418Z,6.60
2023-05-31T08:50:54.066Z,5.97
2023-05-31T08:53:26.910Z,5.80
2023-05-31T08:55:55.425Z,4.93
2023-05-31T08:58:23.966Z,6.97
2023-05-31T09:00:51.263Z,4.18
2023-05-31T09:03:19.946Z,6.20
2023-05-31T09:05:47.312Z,5.20
2023-05-31T09:08:14.890Z,7.28
2023-05-31T09:10:42.525Z,11.82
2023-05-31T09:13:09.981Z,5.03
2023-05-31T09:15:38.151Z,6.25
2023-05-31T09:18:17.141Z,7.07
2023-05-31T09:20:48.552Z,5.20
2023-05-31T09:23:19.181Z,7.57
2023-05-31T09:25:49.614Z,7.90
2023-05-31T09:28:19.737Z,5.88
2023-05-31T09:30:47.252Z,6.20
2023-05-31T09:33:14.924Z,5.43
2023-05-31T09:35:58.283Z,3.45
2023-05-31T09:38:36.807Z,6.72
2023-05-31T09:41:21.709Z,5.70
2023-05-31T09:43:50.967Z,3.97
2023-05-31T09:46:24.712Z,6.32
2023-05-31T09:49:04.149Z,9.98
2023-05-31T09:51:33.521Z,4.07
2023-05-31T09:54:12.144Z,8.73
2023-05-31T09:56:41.637Z,4.13
2023-05-31T09:59:09.567Z,4.55
2023-05-31T10:01:38.281Z,6.40
2023-05-31T10:04:07.008Z,9.35
2023-05-31T10:06:38.707Z,3.88
2023-05-31T10:09:08.349Z,3.95
2023-05-31T10:11:42.342Z,3.75
2023-05-31T10:14:27.023Z,6.55
2023-05-31T10:17:03.637Z,4.13
2023-05-31T10:19:52.311Z,3.78
2023-05-31T10:22:21.603Z,5.10
2023-05-31T10:24:59.198Z,5.05
2023-05-31T10:27:35.578Z,3.67
2023-05-31T10:30:07.593Z,4.97
2023-05-31T10:32:44.800Z,3.50
2023-05-31T10:35:12.635Z,3.05
2023-05-31T10:37:43.850Z,3.55
2023-05-31T10:40:19.294Z,4.88
2023-05-31T10:42:58.602Z,7.25
2023-05-31T10:45:48.052Z,2.58
2023-05-31T10:48:44.215Z,4.45
2023-05-31T10:51:13.167Z,3.75
2023-05-31T10:53:44.411Z,4.28
2023-05-31T10:56:14.558Z,53.53
2023-05-31T10:58:48.655Z,7.80
2023-05-31T11:01:22.765Z,3.90
2023-05-31T11:03:53.254Z,4.78
2023-05-31T11:06:33.867Z,4.38
2023-05-31T11:09:09.513Z,4.15
2023-05-31T11:11:40.565Z,5.70
2023-05-31T11:14:30.533Z,3.22
2023-05-31T11:16:58.640Z,7.68
2023-05-31T11:19:37.675Z,4.85
2023-05-31T11:22:09.841Z,5.13
2023-05-31T11:24:51.756Z,8.85
2023-05-31T11:27:24.525Z,5.53
2023-05-31T11:29:51.600Z,5.97
2023-05-31T11:32:43.422Z,7.68
2023-05-31T11:35:15.412Z,6.18
2023-05-31T11:37:44.589Z,4.43
2023-05-31T11:40:16.405Z,8.07
2023-05-31T11:42:46.221Z,5.13
2023-05-31T11:45:18.594Z,5.68
2023-05-31T11:50:34.461Z,4.80
2023-05-31T11:53:07.190Z,3.35
2023-05-31T11:55:36.356Z,3.72
2023-05-31T11:58:07.551Z,7.28
2023-05-31T12:00:35.932Z,4.90
2023-05-31T12:03:06.378Z,5.50
2023-05-31T12:05:33.648Z,11.75
2023-05-31T12:08:01.199Z,9.93
2023-05-31T12:10:31.694Z,5.10
2023-05-31T12:13:02.701Z,7.28
2023-05-31T12:15:32.349Z,3.17
2023-05-31T12:18:02.729Z,4.70
2023-05-31T12:20:31.308Z,2.80
2023-05-31T12:23:16.054Z,4.03
2023-05-31T12:25:48.195Z,6.47
2023-05-31T12:28:21.205Z,3.47
2023-05-31T12:30:50.362Z,5.25
2023-05-31T12:33:17.654Z,4.43
2023-05-31T12:35:47.338Z,4.70
2023-05-31T12:38:15.262Z,8.13
2023-05-31T12:40:44.618Z,5.00
2023-05-31T12:43:15.340Z,3.38
2023-05-31T12:45:43.196Z,6.32
2023-05-31T12:48:12.105Z,4.43
2023-05-31T12:50:49.311Z,6.80
2023-05-31T12:53:17.248Z,8.77
2023-05-31T12:55:44.932Z,4.07
2023-05-31T12:58:12.256Z,5.50
2023-05-31T13:00:39.521Z,5.63
2023-05-31T13:03:14.259Z,5.70
2023-05-31T13:05:41.852Z,5.15
2023-05-31T13:08:09.069Z,5.03
2023-05-31T13:10:37.330Z,5.32
2023-05-31T13:13:06.080Z,5.20
2023-05-31T13:15:33.330Z,7.22
2023-05-31T13:18:00.726Z,10.82
2023-05-31T13:20:28.287Z,5.90
2023-05-31T13:22:58.066Z,15.45
2023-05-31T13:25:26.420Z,4.22
2023-05-31T13:28:23.655Z,8.85
2023-05-31T13:31:09.401Z,6.72
2023-05-31T13:33:37.791Z,5.15
2023-05-31T13:36:05.397Z,5.07
2023-05-31T13:38:33.591Z,4.63
2023-05-31T13:41:01.611Z,5.18
2023-05-31T13:43:30.862Z,4.38
2023-05-31T13:45:59.253Z,11.25
2023-05-31T13:48:27.475Z,3.08
2023-05-31T13:50:54.904Z,3.85
2023-05-31T13:53:23.025Z,5.90
2023-05-31T13:56:02.367Z,7.47
2023-05-31T13:58:31.711Z,2.78
2023-05-31T14:00:59.167Z,8.52
2023-05-31T14:03:26.668Z,3.00
2023-05-31T14:05:54.328Z,9.43
2023-05-31T14:08:23.865Z,6.63
2023-05-31T14:10:51.773Z,2.90
2023-05-31T14:13:19.331Z,7.50
2023-05-31T14:15:47.241Z,3.53
2023-05-31T14:18:14.765Z,4.63
2023-05-31T14:20:42.510Z,4.30
2023-05-31T14:23:10.102Z,4.18
2023-05-31T14:25:37.497Z,5.65
2023-05-31T14:28:05.862Z,4.05
2023-05-31T14:30:40.763Z,4.93
2023-05-31T14:33:08.363Z,3.65
2023-05-31T14:35:36.397Z,5.25
2023-05-31T14:38:13.912Z,5.85
2023-05-31T14:40:52.930Z,3.75
2023-05-31T14:43:20.575Z,3.20
2023-05-31T14:45:48.664Z,5.82
2023-05-31T14:48:16.400Z,2.70
2023-05-31T14:50:43.849Z,6.18
2023-05-31T14:53:15.615Z,3.17
2023-05-31T14:55:43.244Z,3.47
2023-05-31T14:58:11.853Z,4.03
2023-05-31T15:00:39.036Z,15.88
2023-05-31T15:03:06.297Z,6.03
2023-05-31T15:05:33.568Z,4.53
2023-05-31T15:08:00.723Z,2.88
2023-05-31T15:10:27.952Z,7.55
2023-05-31T15:12:55.227Z,5.32
2023-05-31T15:15:22.471Z,4.45
2023-05-31T15:17:50.150Z,5.53
2023-05-31T15:20:19.453Z,9.85
2023-05-31T15:22:46.614Z,3.90
2023-05-31T15:25:15.639Z,6.55
2023-05-31T15:27:43.611Z,4.75
2023-05-31T15:30:11.346Z,5.93
2023-05-31T15:32:38.555Z,4.90
2023-05-31T15:35:06.468Z,5.07
2023-05-31T15:37:34.534Z,11.98
2023-05-31T15:40:01.824Z,9.82
2023-05-31T15:42:29.045Z,16.30
2023-05-31T15:44:56.243Z,8.98
2023-05-31T15:47:23.520Z,22.60
2023-05-31T15:49:50.769Z,16.02
2023-05-31T15:52:18.181Z,4.15
2023-05-31T15:54:45.469Z,4.53
2023-05-31T15:57:12.662Z,3.33
2023-05-31T15:59:39.848Z,3.72
2023-05-31T16:02:07.483Z,5.00
2023-05-31T16:04:34.722Z,7.50
2023-05-31T16:07:01.919Z,3.95
2023-05-31T16:09:29.101Z,5.18
2023-05-31T16:11:56.413Z,3.95
2023-05-31T16:14:23.588Z,3.30
2023-05-31T16:16:50.828Z,5.60
2023-05-31T16:19:18.092Z,5.05
2023-05-31T16:21:45.302Z,9.00
2023-05-31T16:24:13.644Z,7.45
2023-05-31T16:26:40.987Z,10.68
2023-05-31T16:29:10.478Z,6.00
2023-05-31T16:31:38.077Z,5.05
2023-05-31T16:34:05.450Z,4.53
2023-05-31T16:36:32.978Z,9.00
2023-05-31T16:39:05.120Z,4.57
2023-05-31T16:41:32.422Z,5.82
2023-05-31T16:43:59.596Z,16.02
2023-05-31T16:46:27.159Z,9.50
2023-05-31T16:48:54.773Z,8.77
2023-05-31T16:51:22.514Z,5.57
2023-05-31T16:53:49.692Z,12.50
2023-05-31T16:56:16.945Z,7.20
2023-05-31T16:58:44.176Z,6.25
2023-05-31T17:01:11.371Z,7.20
2023-05-31T17:03:38.628Z,8.05
2023-05-31T17:06:05.938Z,5.20
2023-05-31T17:08:33.166Z,7.07
2023-05-31T17:11:00.698Z,6.93
2023-05-31T17:13:27.871Z,5.57
2023-05-31T17:15:55.061Z,7.45
2023-05-31T17:18:22.284Z,5.63
2023-05-31T17:20:49.662Z,6.53
2023-05-31T17:23:16.874Z,5.82
2023-05-31T17:25:44.414Z,4.82
2023-05-31T17:28:11.616Z,7.28
2023-05-31T17:30:38.870Z,5.38
2023-05-31T17:33:06.212Z,7.75
2023-05-31T17:35:33.455Z,5.63
2023-05-31T17:38:00.731Z,7.63
2023-05-31T17:40:27.901Z,6.75
2023-05-31T17:42:55.172Z,6.78
2023-05-31T17:45:22.444Z,6.63
2023-05-31T17:47:49.941Z,7.10
2023-05-31T17:50:18.310Z,3.67
2023-05-31T17:52:46.189Z,3.95
2023-05-31T17:55:13.386Z,7.90
2023-05-31T17:57:45.142Z,6.38
2023-05-31T18:00:13.268Z,6.40
2023-05-31T18:02:40.623Z,3.60
2023-05-31T18:05:08.309Z,5.53
2023-05-31T18:07:36.061Z,5.68
2023-05-31T18:10:04.595Z,7.03
2023-05-31T18:12:31.851Z,8.95
2023-05-31T18:14:59.039Z,6.15
2023-05-31T18:17:27.203Z,9.25
2023-05-31T18:19:55.134Z,5.68
2023-05-31T18:22:22.323Z,4.88
2023-05-31T18:24:49.513Z,7.35
2023-05-31T18:27:22.440Z,5.82
2023-05-31T18:29:50.395Z,7.78
2023-05-31T18:32:22.216Z,6.82
2023-05-31T18:34:49.537Z,11.13
2023-05-31T18:37:17.062Z,5.80
2023-05-31T18:39:44.569Z,5.60
2023-05-31T18:42:12.058Z,4.72
2023-05-31T18:44:39.433Z,5.05
2023-05-31T18:47:22.350Z,13.93
2023-05-31T18:52:18.090Z,10.98
2023-05-31T18:54:46.469Z,5.93
2023-05-31T18:57:15.361Z,9.23
2023-05-31T18:59:43.651Z,7.57
2023-05-31T19:02:11.620Z,8.68
2023-05-31T19:04:39.884Z,6.63
2023-05-31T19:07:08.141Z,4.78
2023-05-31T19:09:39.520Z,29.00
2023-05-31T19:12:30.635Z,8.43
2023-05-31T19:15:00.430Z,6.10
2023-05-31T19:17:29.433Z,9.00
2023-05-31T19:19:57.743Z,3.47
2023-05-31T19:22:25.274Z,7.18
2023-05-31T19:24:54.195Z,3.50
2023-05-31T19:27:24.523Z,6.13
2023-05-31T19:29:52.497Z,5.82
2023-05-31T19:32:20.576Z,13.35
2023-05-31T19:34:49.216Z,7.47
2023-05-31T19:37:16.420Z,5.13
2023-05-31T19:39:43.609Z,7.18
2023-05-31T19:42:11.901Z,7.57
2023-05-31T19:44:39.145Z,6.50
2023-05-31T19:47:06.618Z,7.25
2023-05-31T19:49:33.843Z,5.47
2023-05-31T19:52:01.144Z,9.25
2023-05-31T19:54:28.338Z,8.13
2023-05-31T19:56:55.664Z,4.88
2023-05-31T19:59:22.938Z,5.75
2023-05-31T20:01:50.214Z,4.47
2023-05-31T20:04:17.599Z,5.55
2023-05-31T20:06:44.937Z,4.38
2023-05-31T20:09:12.130Z,4.90
2023-05-31T20:11:39.550Z,6.05
2023-05-31T20:14:06.812Z,5.90
2023-05-31T20:16:34.101Z,5.63
2023-05-31T20:19:01.633Z,5.43
2023-05-31T20:21:28.926Z,22.50
2023-05-31T20:23:56.583Z,5.85
2023-05-31T20:26:23.861Z,8.18
2023-05-31T20:28:51.264Z,4.97
2023-05-31T20:31:18.621Z,6.53
2023-05-31T20:33:46.198Z,4.43
2023-05-31T20:36:13.440Z,4.82
2023-05-31T20:38:40.775Z,6.50
2023-05-31T20:41:08.067Z,4.88
2023-05-31T20:43:35.556Z,11.07
2023-05-31T20:46:03.065Z,11.55
2023-05-31T20:48:31.151Z,6.88
2023-05-31T20:50:58.573Z,3.35
2023-05-31T20:53:26.674Z,7.25
2023-05-31T20:55:54.522Z,6.03
2023-05-31T20:58:22.120Z,8.40
2023-05-31T21:00:49.866Z,4.55
2023-05-31T21:03:17.283Z,5.88
2023-05-31T21:05:44.481Z,6.78
2023-05-31T21:08:11.717Z,4.75
2023-05-31T21:10:38.981Z,7.25
2023-05-31T21:13:06.187Z,5.30
2023-05-31T21:15:33.385Z,8.45
2023-05-31T21:18:00.673Z,6.22
2023-05-31T21:20:27.898Z,8.38
2023-05-31T21:22:55.602Z,8.40
2023-05-31T21:25:25.289Z,7.80
2023-05-31T21:27:53.772Z,11.20
2023-05-31T21:30:24.728Z,5.95
2023-05-31T21:32:52.575Z,10.25
2023-05-31T21:35:20.351Z,8.77
2023-05-31T21:37:47.560Z,8.77
2023-05-31T21:40:14.836Z,8.60
2023-05-31T21:42:42.046Z,9.02
2023-05-31T21:45:09.642Z,7.78
2023-05-31T21:47:36.885Z,7.47
2023-05-31T21:50:04.457Z,8.07
2023-05-31T21:52:32.751Z,9.32
2023-05-31T21:55:00.483Z,11.38
2023-05-31T21:57:27.718Z,10.45
2023-05-31T21:59:54.948Z,11.63
2023-05-31T22:02:22.142Z,9.55
2023-05-31T22:04:49.351Z,13.13
2023-05-31T22:07:16.673Z,10.10
2023-05-31T22:09:44.611Z,11.30
2023-05-31T22:12:11.813Z,9.70
2023-05-31T22:14:39.085Z,9.73
2023-05-31T22:17:07.315Z,9.80
2023-05-31T22:19:38.176Z,11.40
2023-05-31T22:22:06.636Z,8.73
2023-05-31T22:24:34.114Z,13.15
2023-05-31T22:27:01.524Z,11.70
2023-05-31T22:29:29.368Z,14.07
2023-05-31T22:31:56.727Z,9.90
2023-05-31T22:34:25.619Z,9.07
2023-05-31T22:36:53.183Z,14.40
2023-05-31T22:39:20.562Z,16.95
2023-05-31T22:41:47.755Z,12.00
2023-05-31T22:44:14.968Z,14.60
2023-05-31T22:46:42.232Z,16.17
2023-05-31T22:49:09.448Z,9.70
2023-05-31T22:51:37.067Z,13.20
2023-05-31T22:54:04.285Z,9.93
2023-05-31T22:56:31.578Z,14.18
2023-05-31T22:58:58.757Z,14.63
2023-05-31T23:01:26.222Z,18.30
2023-05-31T23:03:53.498Z,16.67
2023-05-31T23:06:22.385Z,18.13
2023-05-31T23:08:50.139Z,17.08
2023-05-31T23:11:17.806Z,15.68
2023-05-31T23:13:46.102Z,13.73
2023-05-31T23:16:13.339Z,15.93
2023-05-31T23:18:41.671Z,17.38
2023-05-31T23:21:10.184Z,17.95
2023-05-31T23:23:37.428Z,13.98
2023-05-31T23:26:04.786Z,16.23
2023-05-31T23:28:31.986Z,14.68
2023-05-31T23:30:59.332Z,22.63
2023-05-31T23:33:26.722Z,21.77
2023-05-31T23:35:53.902Z,16.92
2023-05-31T23:38:21.117Z,18.20
2023-05-31T23:40:48.311Z,16.42
2023-05-31T23:43:15.542Z,17.10
2023-05-31T23:45:42.818Z,18.95
2023-05-31T23:48:10.128Z,15.82
2023-05-31T23:50:37.450Z,14.77
2023-05-31T23:53:04.661Z,17.00
2023-05-31T23:55:31.887Z,14.63
2023-05-31T23:57:59.120Z,13.98
